Terminal Aerodrome Forecast
Issued by NWS

Home | Current Version | Previous Version | Text Only | Print | Product List | Glossary On
Versions: 1 2 3 4 5 6 7 8 9 10 11 12 13 14 15 16 17 18 19 20 21 22 23
000
FTUS43 KDMX 221203 AAA
TAFMCW
TAF AMD
KMCW 221203Z 2212/2312 11007KT P6SM VCSH OVC060
     FM221400 09006KT P6SM VCSH OVC040
     FM221700 10009KT 3SM -SN OVC030
     FM222200 11010KT 1 1/2SM -SN OVC014
     FM230700 19006KT 1 1/2SM -FZDZ OVC003
     FM230800 20005KT P6SM OVC005=

USA.gov is the U.S. government's official web portal to all federal, state and local government web resources and services.